| time (UTC) | temp F | wind direction | speed MPH | gust MPH | rain 1hr in | rain 24hr in | rain mn in | humidity % | barometer mb |
| 20260903013538 | 74 | 135 | 4.0 | 13.0 | 0.00 | 0.02 | 0.02 | 44 | 1002.9 |
| 20260903012037 | 74 | 180 | 7.0 | 14.0 | 0.00 | 0.02 | 0.02 | 47 | 1003.1 |
| 20260903010516 | 74 | 180 | 7.0 | 16.0 | 0.00 | 0.02 | 0.02 | 47 | 1003.3 |
| 20260903005016 | 75 | 180 | 5.0 | 12.0 | 0.00 | 0.02 | 0.02 | 47 | 1003.1 |
| 20260903003516 | 75 | 158 | 8.0 | 17.0 | 0.00 | 0.02 | 0.02 | 47 | 1003.1 |
| 20260903002017 | 75 | 180 | 8.0 | 16.0 | 0.00 | 0.02 | 0.02 | 47 | 1003.1 |
| 20260903000536 | 75 | 180 | 9.0 | 18.0 | 0.00 | 0.02 | 0.02 | 46 | 1003.1 |
| 20260902235016 | 75 | 135 | 8.0 | 13.0 | 0.00 | 0.02 | 0.02 | 45 | 1003.4 |
| 20260902233536 | 75 | 135 | 5.0 | 13.0 | 0.00 | 0.02 | 0.02 | 47 | 1003.3 |
| 20260902232016 | 74 | 135 | 5.0 | 9.0 | 0.00 | 0.02 | 0.02 | 44 | 1003.2 |
| 20260902230516 | 75 | 158 | 3.0 | 9.0 | 0.00 | 0.02 | 0.02 | 44 | 1003.3 |
| 20260902225016 | 76 | 135 | 5.0 | 16.0 | 0.00 | 0.02 | 0.02 | 41 | 1003.5 |
| 20260902223536 | 77 | 45 | 3.0 | 8.0 | 0.00 | 0.02 | 0.02 | 45 | 1003.5 |
| 20260902222016 | 76 | 180 | 3.0 | 5.0 | 0.00 | 0.02 | 0.02 | 45 | 1003.5 |
| 20260902220516 | 75 | 180 | 3.0 | 7.0 | 0.00 | 0.02 | 0.02 | 46 | 1003.7 |
| 20260902215016 | 75 | 180 | 2.0 | 6.0 | 0.00 | 0.02 | 0.02 | 46 | 1003.8 |
| 20260902213516 | 75 | 180 | 3.0 | 6.0 | 0.00 | 0.02 | 0.02 | 47 | 1004.0 |
| 20260902212016 | 74 | 180 | 4.0 | 6.0 | 0.00 | 0.02 | 0.02 | 53 | 1004.3 |
| 20260902210516 | 72 | 180 | 3.0 | 8.0 | 0.00 | 0.02 | 0.02 | 56 | 1004.5 |
| 20260902205036 | 71 | 180 | 4.0 | 8.0 | 0.00 | 0.02 | 0.02 | 59 | 1004.5 |
| 20260902203536 | 72 | 180 | 3.0 | 7.0 | 0.00 | 0.02 | 0.02 | 61 | 1004.7 |
| 20260902202016 | 70 | 180 | 3.0 | 6.0 | 0.00 | 0.02 | 0.02 | 66 | 1005.1 |
| 20260902200516 | 70 | 180 | 4.0 | 9.0 | 0.00 | 0.02 | 0.02 | 65 | 1005.3 |
| 20260902195015 | 72 | 180 | 4.0 | 7.0 | 0.00 | 0.02 | 0.02 | 62 | 1005.4 |
| 20260902193516 | 71 | 180 | 3.0 | 5.0 | 0.00 | 0.02 | 0.02 | 62 | 1005.6 |
| 20260902192036 | 70 | 180 | 5.0 | 9.0 | 0.00 | 0.02 | 0.02 | 63 | 1006.0 |
| 20260902190516 | 70 | 158 | 2.0 | 5.0 | 0.00 | 0.02 | 0.02 | 65 | 1006.2 |
| 20260902185016 | 68 | 135 | 2.0 | 4.0 | 0.00 | 0.02 | 0.02 | 68 | 1006.1 |
| 20260902183515 | 68 | 113 | 1.0 | 3.0 | 0.00 | 0.02 | 0.02 | 66 | 1006.1 |
| 20260902182016 | 68 | 113 | 1.0 | 3.0 | 0.00 | 0.02 | 0.02 | 69 | 1006.1 |
| 20260902180515 | 68 | 90 | 2.0 | 6.0 | 0.00 | 0.02 | 0.02 | 67 | 1006.2 |
| 20260902175015 | 69 | 90 | 3.0 | 8.0 | 0.00 | 0.02 | 0.02 | 66 | 1006.2 |
| 20260902173515 | 68 | 180 | 2.0 | 5.0 | 0.00 | 0.02 | 0.02 | 67 | 1006.2 |
| 20260902172015 | 67 | 180 | 2.0 | 6.0 | 0.00 | 0.02 | 0.02 | 68 | 1006.5 |
| 20260902170516 | 67 | 158 | 2.0 | 5.0 | 0.00 | 0.02 | 0.02 | 70 | 1006.5 |
| 20260902165055 | 66 | 180 | 2.0 | 5.0 | 0.00 | 0.02 | 0.02 | 71 | 1006.1 |
| 20260902163515 | 64 | 180 | 3.0 | 5.0 | 0.00 | 0.02 | 0.02 | 76 | 1006.1 |
| 20260902162016 | 64 | 180 | 3.0 | 6.0 | 0.00 | 0.02 | 0.02 | 73 | 1006.5 |
| 20260902160515 | 65 | 203 | 2.0 | 7.0 | 0.00 | 0.02 | 0.02 | 71 | 1006.7 |
| 20260902155015 | 65 | 135 | 2.0 | 4.0 | 0.00 | 0.02 | 0.02 | 69 | 1006.4 |
| 20260902153515 | 64 | 68 | 2.0 | 4.0 | 0.01 | 0.02 | 0.02 | 71 | 1006.1 |
| 20260902152015 | 63 | 0.0 | 1.0 | 0.02 | 0.02 | 0.02 | 76 | 1006.6 | |
| 20260902150515 | 62 | 0.0 | 2.0 | 0.02 | 0.02 | 0.02 | 78 | 1006.3 | |
| 20260902145017 | 61 | 23 | 1.0 | 4.0 | 0.02 | 0.02 | 0.02 | 79 | 1005.5 |
| 20260902143537 | 61 | 0 | 3.0 | 10.0 | 0.01 | 0.01 | 0.01 | 77 | 1004.9 |
| 20260902142017 | 63 | 0.0 | 2.0 | 0.00 | 0.00 | 0.00 | 74 | 1006.8 | |
| 20260902140517 | 63 | 0 | 2.0 | 4.0 | 0.00 | 0.00 | 0.00 | 68 | 1005.8 |
| 20260902135017 | 62 | 0.0 | 2.0 | 0.00 | 0.00 | 0.00 | 68 | 1005.4 | |
| 20260902133517 | 62 | 315 | 1.0 | 2.0 | 0.00 | 0.00 | 0.00 | 66 | 1005.6 |
| 20260902132058 | 62 | 0.0 | 2.0 | 0.00 | 0.00 | 0.00 | 67 | 1005.5 | |
| 20260902130517 | 64 | 338 | 1.0 | 4.0 | 0.00 | 0.00 | 0.00 | 62 | 1005.6 |
| 20260902125017 | 64 | 338 | 2.0 | 6.0 | 0.00 | 0.00 | 0.00 | 64 | 1005.5 |
| 20260902123517 | 64 | 248 | 2.0 | 4.0 | 0.00 | 0.00 | 0.00 | 63 | 1005.5 |
| 20260902122017 | 64 | 248 | 1.0 | 3.0 | 0.00 | 0.00 | 0.00 | 65 | 1005.4 |
| 20260902120517 | 64 | 270 | 2.0 | 3.0 | 0.00 | 0.00 | 0.00 | 68 | 1005.4 |
| 20260902115017 | 63 | 270 | 1.0 | 2.0 | 0.00 | 0.00 | 0.00 | 71 | 1005.6 |
| 20260902113517 | 65 | 135 | 1.0 | 3.0 | 0.00 | 0.00 | 0.00 | 69 | 1006.4 |
| 20260902112017 | 65 | 203 | 2.0 | 5.0 | 0.00 | 0.00 | 0.00 | 70 | 1006.4 |
| 20260902110516 | 64 | 338 | 2.0 | 4.0 | 0.00 | 0.00 | 0.00 | 69 | 1005.9 |
| 20260902105017 | 64 | 338 | 1.0 | 2.0 | 0.00 | 0.00 | 0.00 | 67 | 1006.0 |
| 20260902103517 | 65 | 0.0 | 2.0 | 0.00 | 0.00 | 0.00 | 66 | 1006.2 | |
| 20260902102017 | 66 | 225 | 3.0 | 6.0 | 0.00 | 0.00 | 0.00 | 62 | 1006.2 |
| 20260902100516 | 67 | 0 | 3.0 | 8.0 | 0.00 | 0.00 | 0.00 | 59 | 1006.0 |
| 20260902095056 | 68 | 135 | 2.0 | 5.0 | 0.00 | 0.00 | 0.00 | 57 | 1006.6 |
| 20260902093517 | 67 | 0 | 1.0 | 4.0 | 0.00 | 0.00 | 0.00 | 59 | 1006.4 |
| 20260902092016 | 68 | 315 | 2.0 | 7.0 | 0.00 | 0.00 | 0.00 | 57 | 1006.3 |
| 20260902090516 | 68 | 338 | 3.0 | 6.0 | 0.00 | 0.00 | 0.00 | 57 | 1006.4 |
| 20260902085017 | 68 | 23 | 3.0 | 9.0 | 0.00 | 0.00 | 0.00 | 60 | 1006.5 |
| 20260902083516 | 68 | 248 | 4.0 | 9.0 | 0.00 | 0.00 | 0.00 | 61 | 1006.8 |
| 20260902082016 | 69 | 180 | 3.0 | 9.0 | 0.00 | 0.00 | 0.00 | 58 | 1006.4 |
| 20260902080517 | 70 | 315 | 2.0 | 9.0 | 0.00 | 0.00 | 0.00 | 54 | 1006.8 |
| 20260902075016 | 71 | 338 | 4.0 | 13.0 | 0.00 | 0.00 | 0.00 | 52 | 1006.7 |
| 20260902073516 | 71 | 113 | 3.0 | 10.0 | 0.00 | 0.00 | 0.00 | 53 | 1007.2 |
| 20260902072016 | 71 | 270 | 4.0 | 11.0 | 0.00 | 0.00 | 0.00 | 51 | 1006.6 |
| 20260902070516 | 72 | 248 | 6.0 | 14.0 | 0.00 | 0.00 | 0.00 | 49 | 1006.7 |
| 20260902065015 | 73 | 225 | 5.0 | 13.0 | 0.00 | 0.00 | 0.00 | 47 | 1006.4 |
| 20260902063515 | 73 | 248 | 3.0 | 6.0 | 0.00 | 0.00 | 0.00 | 45 | 1006.2 |
| 20260902062016 | 73 | 248 | 1.0 | 7.0 | 0.00 | 0.00 | 0.00 | 46 | 1006.1 |
| 20260902060517 | 73 | 338 | 4.0 | 8.0 | 0.00 | 0.00 | 0.00 | 44 | 1005.9 |
| 20260902055017 | 73 | 180 | 4.0 | 11.0 | 0.00 | 0.00 | 0.00 | 44 | 1005.7 |
| 20260902053517 | 73 | 315 | 1.0 | 3.0 | 0.00 | 0.00 | 0.00 | 43 | 1005.5 |
| 20260902052037 | 75 | 248 | 3.0 | 7.0 | 0.00 | 0.00 | 0.00 | 43 | 1005.4 |
| 20260902050517 | 75 | 158 | 2.0 | 5.0 | 0.00 | 0.00 | 0.00 | 43 | 1005.3 |
| 20260902045017 | 71 | 68 | 1.0 | 3.0 | 0.00 | 0.00 | 0.00 | 48 | 1004.7 |
| 20260902043517 | 69 | 270 | 1.0 | 2.0 | 0.00 | 0.00 | 0.00 | 52 | 1004.4 |
| 20260902042017 | 73 | 0.0 | 2.0 | 0.00 | 0.00 | 0.00 | 45 | 1004.1 | |
| 20260902040517 | 73 | 293 | 1.0 | 3.0 | 0.00 | 0.00 | 0.00 | 45 | 1004.0 |
| 20260902035017 | 73 | 248 | 1.0 | 3.0 | 0.00 | 0.00 | 0.00 | 46 | 1003.8 |
| 20260902033537 | 73 | 0.0 | 1.0 | 0.00 | 0.00 | 0.00 | 45 | 1003.6 | |
| 20260902032017 | 73 | 248 | 1.0 | 3.0 | 0.00 | 0.00 | 0.00 | 47 | 1003.5 |
| 20260902030517 | 73 | 158 | 1.0 | 2.0 | 0.00 | 0.00 | 0.00 | 48 | 1003.5 |
| 20260902025037 | 72 | 0.0 | 0.0 | 0.00 | 0.00 | 0.00 | 51 | 1003.3 | |
| 20260902023517 | 72 | 0.0 | 1.0 | 0.00 | 0.00 | 0.00 | 56 | 1003.4 | |
| 20260902022017 | 73 | 0.0 | 0.0 | 0.00 | 0.00 | 0.00 | 58 | 1003.3 | |
| 20260902020517 | 73 | 158 | 1.0 | 2.0 | 0.00 | 0.00 | 0.00 | 59 | 1003.4 |
| 20260902015016 | 75 | 68 | 1.0 | 4.0 | 0.00 | 0.00 | 0.00 | 57 | 1003.5 |